Terminal Aerodrome Forecast
Issued by NWS

Current Version | Previous Version | Text Only | Print | Product List | Glossary On
Versions: 1 2 3 4 5 6 7 8 9 10 11 12 13 14 15 16 17 18 19 20 21 22 23 24 25
000
FTUS42 KTBW 230700 AAB
TAFRSW
TAF AMD
KRSW 230704Z 2307/2406 VRB03KT 6SM BR FEW001 SCT250
     FM230900 VRB03KT P6SM VCSH FEW015 SCT250
     FM231500 VRB04KT P6SM SCT025 SCT250
     FM231700 24005KT P6SM VCTS SCT035CB SCT100 BKN250
     FM240000 VRB06KT P6SM SCT035 BKN150=

USA.gov is the U.S. government's official web portal to all federal, state and local government web resources and services.